createdAt,value
2019-04-16T00:01:54.380Z,20.70
2019-04-16T00:04:36.133Z,20.70
2019-04-16T00:07:17.441Z,20.70
2019-04-16T00:10:02.741Z,20.70
2019-04-16T00:12:49.628Z,20.70
2019-04-16T00:15:16.557Z,20.70
2019-04-16T00:17:44.322Z,20.60
2019-04-16T00:20:12.340Z,20.60
2019-04-16T00:22:44.041Z,20.60
2019-04-16T00:25:11.107Z,20.50
2019-04-16T00:27:38.267Z,20.60
2019-04-16T00:30:06.628Z,20.50
2019-04-16T00:32:33.680Z,20.60
2019-04-16T00:35:01.829Z,20.60
2019-04-16T00:37:28.603Z,20.70
2019-04-16T00:39:56.870Z,20.70
2019-04-16T00:42:23.868Z,20.70
2019-04-16T00:44:50.826Z,20.70
2019-04-16T00:47:17.810Z,20.70
2019-04-16T00:49:44.918Z,20.60
2019-04-16T00:52:12.004Z,20.60
2019-04-16T00:54:42.465Z,20.60
2019-04-16T00:57:08.403Z,20.60
2019-04-16T00:59:35.460Z,20.60
2019-04-16T01:02:02.522Z,20.50
2019-04-16T01:04:42.162Z,20.50
2019-04-16T01:07:09.298Z,20.50
2019-04-16T01:09:36.215Z,20.50
2019-04-16T01:12:03.397Z,20.50
2019-04-16T01:14:30.342Z,20.50
2019-04-16T01:17:04.090Z,20.50
2019-04-16T01:19:28.203Z,20.50
2019-04-16T01:21:55.248Z,20.40
2019-04-16T01:24:23.634Z,20.40
2019-04-16T01:26:50.768Z,20.40
2019-04-16T01:29:17.815Z,20.30
2019-04-16T01:32:03.287Z,20.30
2019-04-16T01:34:47.154Z,20.30
2019-04-16T01:37:15.678Z,20.20
2019-04-16T01:39:47.439Z,20.20
2019-04-16T01:42:13.381Z,20.10
2019-04-16T01:44:40.329Z,20.10
2019-04-16T01:47:08.419Z,20.10
2019-04-16T01:49:36.366Z,20.00
2019-04-16T01:52:03.426Z,20.00
2019-04-16T01:54:30.394Z,20.10
2019-04-16T01:57:00.056Z,20.10
2019-04-16T01:59:26.033Z,20.10
2019-04-16T02:01:52.983Z,20.10
2019-04-16T02:04:20.556Z,20.10
2019-04-16T02:06:47.732Z,20.10
2019-04-16T02:09:22.514Z,20.10
2019-04-16T02:11:43.638Z,20.10
2019-04-16T02:14:10.652Z,20.10
2019-04-16T02:16:37.589Z,20.00
2019-04-16T02:19:05.342Z,20.00
2019-04-16T02:21:32.248Z,20.00
2019-04-16T02:23:59.192Z,19.90
2019-04-16T02:26:26.034Z,19.90
2019-04-16T02:28:53.154Z,19.90
2019-04-16T02:31:20.587Z,19.80
2019-04-16T02:33:47.505Z,19.80
2019-04-16T02:36:14.602Z,19.80
2019-04-16T02:38:46.430Z,19.80
2019-04-16T02:41:10.108Z,19.80
2019-04-16T02:43:40.853Z,19.80
2019-04-16T02:46:06.621Z,19.80
2019-04-16T02:48:33.560Z,19.70
2019-04-16T02:51:07.300Z,19.70
2019-04-16T02:53:34.711Z,19.60
2019-04-16T02:56:03.668Z,19.60
2019-04-16T02:58:34.419Z,19.60
2019-04-16T03:01:21.601Z,19.60
2019-04-16T03:03:59.125Z,19.50
2019-04-16T03:06:25.921Z,19.50
2019-04-16T03:08:52.728Z,19.50
2019-04-16T03:11:19.524Z,19.50
2019-04-16T03:13:46.319Z,19.40
2019-04-16T03:16:27.012Z,19.30
2019-04-16T03:18:55.623Z,19.20
2019-04-16T03:21:24.487Z,19.20
2019-04-16T03:23:51.016Z,19.10
2019-04-16T03:26:18.258Z,19.00
2019-04-16T03:28:45.321Z,18.90
2019-04-16T03:31:19.440Z,18.90
2019-04-16T03:33:48.385Z,18.90
2019-04-16T03:36:09.597Z,19.00
2019-04-16T03:38:41.809Z,19.00
2019-04-16T03:41:05.812Z,19.10
2019-04-16T03:43:33.096Z,19.10
2019-04-16T03:45:59.889Z,19.10
2019-04-16T03:48:26.740Z,19.10
2019-04-16T03:50:53.545Z,19.20
2019-04-16T03:53:20.338Z,19.10
2019-04-16T03:55:47.221Z,19.10
2019-04-16T03:58:15.355Z,19.10
2019-04-16T04:00:44.138Z,19.10
2019-04-16T04:03:10.772Z,19.00
2019-04-16T04:05:38.011Z,19.00
2019-04-16T04:08:06.758Z,19.00
2019-04-16T04:10:36.735Z,19.10
2019-04-16T04:13:04.770Z,19.10
2019-04-16T04:15:30.781Z,19.20
2019-04-16T04:17:57.759Z,19.20
2019-04-16T04:20:24.533Z,19.20
2019-04-16T04:22:51.326Z,19.20
2019-04-16T04:25:19.342Z,19.20
2019-04-16T04:27:46.743Z,19.20
2019-04-16T04:30:17.263Z,19.20
2019-04-16T04:32:47.283Z,19.30
2019-04-16T04:35:12.733Z,19.30
2019-04-16T04:37:39.626Z,19.40
2019-04-16T04:40:06.539Z,19.40
2019-04-16T04:42:33.212Z,19.50
2019-04-16T04:45:00.023Z,19.50
2019-04-16T04:47:26.811Z,19.60
2019-04-16T04:49:53.659Z,19.70
2019-04-16T04:52:20.440Z,19.90
2019-04-16T04:54:47.494Z,20.10
2019-04-16T04:57:14.219Z,20.40
2019-04-16T04:59:41.369Z,20.90
2019-04-16T05:02:10.842Z,21.40
2019-04-16T05:04:49.605Z,22.10
2019-04-16T05:07:18.321Z,22.70
2019-04-16T05:09:45.202Z,23.40
2019-04-16T05:12:11.902Z,23.80
2019-04-16T05:14:40.637Z,24.20
2019-04-16T05:17:07.604Z,24.40
2019-04-16T05:19:34.660Z,24.60
2019-04-16T05:22:01.471Z,24.80
2019-04-16T05:24:29.859Z,25.00
2019-04-16T05:26:56.887Z,25.20
2019-04-16T05:29:23.731Z,25.30
2019-04-16T05:31:54.367Z,25.50
2019-04-16T05:34:19.239Z,25.60
2019-04-16T05:36:47.867Z,25.80
2019-04-16T05:39:16.052Z,26.00
2019-04-16T05:41:43.175Z,26.20
2019-04-16T05:44:09.995Z,26.40
2019-04-16T05:46:38.355Z,26.60
2019-04-16T05:49:05.230Z,26.80
2019-04-16T05:51:33.050Z,27.00
2019-04-16T05:54:08.479Z,27.20
2019-04-16T05:56:41.214Z,27.40
2019-04-16T05:59:08.172Z,27.70
2019-04-16T06:01:52.822Z,27.90
2019-04-16T06:04:24.281Z,28.10
2019-04-16T06:06:48.344Z,28.20
2019-04-16T06:09:15.165Z,28.30
2019-04-16T06:11:41.967Z,28.60
2019-04-16T06:14:17.019Z,28.90
2019-04-16T06:16:41.312Z,29.20
2019-04-16T06:19:12.872Z,29.60
2019-04-16T06:21:57.284Z,29.90
2019-04-16T06:24:26.005Z,30.20
2019-04-16T06:27:11.370Z,30.40
2019-04-16T06:29:40.155Z,30.60
2019-04-16T06:32:17.574Z,30.70
2019-04-16T06:34:47.382Z,30.80
2019-04-16T06:37:20.367Z,30.90
2019-04-16T06:39:46.570Z,30.90
2019-04-16T06:42:22.305Z,30.90
2019-04-16T06:44:51.304Z,30.80
2019-04-16T06:47:28.568Z,30.80
2019-04-16T06:49:57.398Z,30.70
2019-04-16T06:52:36.435Z,30.50
2019-04-16T06:55:15.844Z,30.50
2019-04-16T06:57:44.772Z,30.60
2019-04-16T07:00:35.083Z,30.70
2019-04-16T07:03:19.808Z,30.90
2019-04-16T07:06:04.042Z,31.10
2019-04-16T07:08:51.866Z,31.10
2019-04-16T07:11:20.637Z,31.20
2019-04-16T07:13:47.597Z,31.30
2019-04-16T07:16:14.839Z,31.40
2019-04-16T07:18:41.985Z,31.40
2019-04-16T07:21:08.895Z,31.50
2019-04-16T07:23:35.693Z,31.50
2019-04-16T07:26:03.846Z,31.50
2019-04-16T07:28:36.708Z,31.50
2019-04-16T07:31:32.974Z,31.60
2019-04-16T07:34:08.699Z,31.60
2019-04-16T07:36:40.235Z,31.60
2019-04-16T07:39:28.789Z,31.70
2019-04-16T07:42:09.533Z,31.80
2019-04-16T07:44:33.456Z,32.00
2019-04-16T07:47:11.370Z,32.10
2019-04-16T07:49:42.896Z,32.10
2019-04-16T07:52:20.530Z,32.20
2019-04-16T07:55:06.131Z,32.30
2019-04-16T07:57:33.002Z,32.40
2019-04-16T07:59:59.836Z,32.70
2019-04-16T08:02:26.742Z,32.90
2019-04-16T08:04:53.529Z,33.10
2019-04-16T08:07:21.252Z,33.20
2019-04-16T08:09:48.224Z,33.30
2019-04-16T08:12:29.362Z,33.50
2019-04-16T08:14:43.562Z,33.60
2019-04-16T08:17:10.554Z,33.70
2019-04-16T08:19:37.661Z,33.60
2019-04-16T08:22:04.744Z,33.50
2019-04-16T08:24:33.365Z,33.50
2019-04-16T08:27:00.255Z,33.60
2019-04-16T08:29:27.043Z,33.70
2019-04-16T08:31:53.927Z,33.70
2019-04-16T08:34:20.930Z,33.70
2019-04-16T08:36:47.702Z,33.60
2019-04-16T08:39:15.403Z,33.50
2019-04-16T08:41:42.188Z,33.40
2019-04-16T08:44:10.307Z,33.20
2019-04-16T08:46:40.113Z,33.10
2019-04-16T08:49:06.374Z,33.00
2019-04-16T08:51:36.921Z,32.80
2019-04-16T08:54:02.110Z,32.60
2019-04-16T08:56:29.035Z,32.50
2019-04-16T08:58:59.912Z,32.40
2019-04-16T09:01:26.419Z,32.30
2019-04-16T09:03:53.299Z,32.30
2019-04-16T09:06:21.481Z,32.20
2019-04-16T09:09:12.922Z,32.20
2019-04-16T09:11:35.463Z,32.10
2019-04-16T09:14:03.615Z,32.00
2019-04-16T09:16:32.456Z,31.70
2019-04-16T09:19:07.205Z,31.50
2019-04-16T09:21:34.021Z,31.40
2019-04-16T09:24:19.300Z,31.30
2019-04-16T09:26:48.175Z,31.20
2019-04-16T09:29:26.748Z,31.20
2019-04-16T09:32:04.176Z,31.10
2019-04-16T09:34:49.578Z,31.10
2019-04-16T09:37:30.160Z,31.00
2019-04-16T09:40:15.933Z,31.00
2019-04-16T09:42:34.509Z,31.10
2019-04-16T09:45:01.701Z,31.20
2019-04-16T09:47:32.710Z,31.30
2019-04-16T09:49:58.957Z,31.40
2019-04-16T09:52:25.755Z,31.30
2019-04-16T09:54:52.578Z,31.20
2019-04-16T09:57:19.516Z,31.00
2019-04-16T09:59:48.478Z,30.90
2019-04-16T10:02:17.168Z,31.00
2019-04-16T10:04:44.192Z,31.00
2019-04-16T10:07:11.040Z,31.20
2019-04-16T10:09:37.857Z,31.30
2019-04-16T10:12:07.594Z,31.40
2019-04-16T10:14:33.746Z,31.40
2019-04-16T10:17:00.793Z,31.40
2019-04-16T10:19:27.928Z,31.30
2019-04-16T10:21:54.825Z,31.00
2019-04-16T10:24:30.702Z,30.80
2019-04-16T10:26:59.970Z,30.70
2019-04-16T10:29:27.386Z,30.50
2019-04-16T10:31:55.319Z,30.20
2019-04-16T10:34:22.692Z,30.00
2019-04-16T10:36:49.846Z,29.80
2019-04-16T10:39:18.844Z,29.70
2019-04-16T10:41:47.828Z,29.60
2019-04-16T10:44:22.945Z,29.50
2019-04-16T10:46:57.517Z,29.40
2019-04-16T10:49:32.696Z,29.40
2019-04-16T10:52:22.307Z,29.50
2019-04-16T10:54:53.849Z,29.60
2019-04-16T10:57:25.807Z,29.60
2019-04-16T10:59:54.976Z,29.30
2019-04-16T11:02:32.981Z,29.30
2019-04-16T11:05:03.016Z,29.30
2019-04-16T11:07:32.906Z,29.20
2019-04-16T11:09:59.890Z,29.10
2019-04-16T11:12:26.895Z,29.10
2019-04-16T11:14:54.049Z,29.10
2019-04-16T11:17:22.816Z,29.30
2019-04-16T11:19:52.769Z,29.50
2019-04-16T11:22:18.499Z,29.60
2019-04-16T11:24:45.540Z,29.70
2019-04-16T11:27:12.881Z,29.80
2019-04-16T11:29:42.069Z,29.90
2019-04-16T11:32:10.237Z,29.80
2019-04-16T11:34:37.086Z,29.80
2019-04-16T11:37:08.115Z,29.70
2019-04-16T11:39:33.352Z,29.70
2019-04-16T11:42:00.284Z,29.60
2019-04-16T11:44:27.299Z,29.70
2019-04-16T11:46:54.236Z,29.70
2019-04-16T11:49:22.297Z,29.70
2019-04-16T11:51:49.241Z,29.80
2019-04-16T11:54:16.245Z,29.80
2019-04-16T11:56:44.766Z,29.90
2019-04-16T11:59:11.922Z,29.70
2019-04-16T12:01:49.823Z,29.50
2019-04-16T12:04:35.095Z,29.40
2019-04-16T12:07:09.668Z,29.20
2019-04-16T12:09:50.323Z,29.10
2019-04-16T12:12:34.009Z,28.80
2019-04-16T12:15:14.891Z,28.70
2019-04-16T12:17:55.854Z,28.50
2019-04-16T12:20:30.555Z,28.40
2019-04-16T12:23:02.786Z,28.30
2019-04-16T12:25:34.765Z,28.20
2019-04-16T12:28:21.132Z,28.20
2019-04-16T12:31:07.033Z,28.10
2019-04-16T12:33:38.676Z,28.00
2019-04-16T12:36:12.803Z,27.90
2019-04-16T12:38:40.852Z,27.80
2019-04-16T12:41:12.404Z,27.60
2019-04-16T12:43:50.791Z,27.50
2019-04-16T12:46:27.085Z,27.30
2019-04-16T12:48:56.430Z,27.20
2019-04-16T12:51:39.818Z,26.90
2019-04-16T12:54:25.297Z,26.80
2019-04-16T12:57:06.806Z,26.70
2019-04-16T12:59:36.581Z,26.50
2019-04-16T13:02:24.198Z,26.30
2019-04-16T13:05:08.203Z,26.10
2019-04-16T13:07:43.169Z,25.90
2019-04-16T13:10:17.933Z,25.80
2019-04-16T13:13:02.252Z,25.60
2019-04-16T13:15:49.551Z,25.50
2019-04-16T13:18:26.114Z,25.40
2019-04-16T13:21:03.892Z,25.40
2019-04-16T13:23:41.195Z,25.30
2019-04-16T13:26:13.443Z,25.10
2019-04-16T13:28:41.353Z,25.10
2019-04-16T13:31:09.097Z,25.00
2019-04-16T13:33:37.013Z,25.00
2019-04-16T13:36:04.516Z,25.00
2019-04-16T13:38:43.345Z,25.00
2019-04-16T13:41:10.722Z,24.90
2019-04-16T13:43:42.243Z,24.90
2019-04-16T13:46:09.915Z,24.90
2019-04-16T13:48:42.205Z,24.80
2019-04-16T13:51:13.505Z,24.80
2019-04-16T13:53:40.819Z,24.60
2019-04-16T13:56:24.918Z,24.60
2019-04-16T13:59:12.641Z,24.50
2019-04-16T14:01:45.054Z,24.50
2019-04-16T14:04:10.650Z,24.50
2019-04-16T14:06:37.677Z,24.50
2019-04-16T14:09:07.748Z,24.50
2019-04-16T14:11:36.571Z,24.40
2019-04-16T14:14:07.863Z,24.40
2019-04-16T14:16:32.912Z,24.30
2019-04-16T14:19:02.202Z,24.30
2019-04-16T14:21:28.950Z,24.30
2019-04-16T14:23:56.097Z,24.30
2019-04-16T14:26:23.189Z,24.30
2019-04-16T14:28:52.254Z,24.30
2019-04-16T14:31:20.718Z,24.40
2019-04-16T14:33:49.657Z,24.30
2019-04-16T14:36:16.761Z,24.30
2019-04-16T14:38:51.212Z,24.30
2019-04-16T14:41:18.446Z,24.30
2019-04-16T14:43:47.622Z,24.30
2019-04-16T14:46:14.869Z,24.30
2019-04-16T14:48:45.463Z,24.30
2019-04-16T14:51:11.014Z,24.30
2019-04-16T14:53:46.060Z,24.20
2019-04-16T14:56:20.828Z,24.20
2019-04-16T14:58:55.714Z,24.30
2019-04-16T15:01:24.781Z,24.30
2019-04-16T15:04:02.449Z,24.40
2019-04-16T15:06:49.102Z,24.30
2019-04-16T15:09:30.903Z,24.30
2019-04-16T15:12:16.864Z,24.30
2019-04-16T15:15:01.215Z,24.30
2019-04-16T15:17:42.592Z,24.30
2019-04-16T15:20:14.255Z,24.30
2019-04-16T15:22:46.208Z,24.30
2019-04-16T15:25:15.201Z,24.30
2019-04-16T15:27:44.191Z,24.40
2019-04-16T15:30:28.289Z,24.40
2019-04-16T15:33:07.114Z,24.40
2019-04-16T15:35:37.280Z,24.40
2019-04-16T15:38:26.585Z,24.40
2019-04-16T15:40:57.994Z,24.40
2019-04-16T15:43:39.988Z,24.50
2019-04-16T15:46:25.538Z,24.50
2019-04-16T15:48:51.554Z,24.60
2019-04-16T15:51:35.435Z,24.50
2019-04-16T15:54:04.412Z,24.50
2019-04-16T15:56:42.019Z,24.60
2019-04-16T15:59:19.908Z,24.60
2019-04-16T16:02:06.716Z,24.60
2019-04-16T16:04:41.748Z,24.60
2019-04-16T16:07:09.318Z,24.70
2019-04-16T16:09:50.481Z,24.70
2019-04-16T16:12:22.082Z,24.70
2019-04-16T16:14:48.263Z,24.70
2019-04-16T16:17:15.315Z,24.70
2019-04-16T16:19:42.553Z,24.70
2019-04-16T16:22:11.982Z,24.70
2019-04-16T16:24:42.045Z,24.70
2019-04-16T16:27:07.566Z,24.70
2019-04-16T16:29:35.134Z,24.70
2019-04-16T16:32:02.391Z,24.70
2019-04-16T16:34:31.569Z,24.70
2019-04-16T16:36:58.525Z,24.70
2019-04-16T16:39:25.716Z,24.60
2019-04-16T16:41:53.127Z,24.60
2019-04-16T16:44:20.281Z,24.60
2019-04-16T16:47:00.786Z,24.50
2019-04-16T17:19:58.178Z,24.50
2019-04-16T17:22:25.614Z,24.50
2019-04-16T17:24:54.596Z,24.50
2019-04-16T17:27:23.704Z,24.50
2019-04-16T17:29:50.924Z,24.50
2019-04-16T17:32:19.133Z,24.50
2019-04-16T17:34:46.716Z,24.50
2019-04-16T17:37:13.863Z,24.50
2019-04-16T17:39:43.334Z,24.50
2019-04-16T17:45:20.141Z,24.60
2019-04-16T17:48:05.846Z,24.60
2019-04-16T17:50:39.335Z,24.70
2019-04-16T17:53:06.358Z,24.70
2019-04-16T17:55:38.253Z,24.70
2019-04-16T17:58:07.208Z,24.80
2019-04-16T18:00:39.929Z,24.80
2019-04-16T18:03:21.086Z,24.90
2019-04-16T18:06:08.318Z,25.00
2019-04-16T18:08:37.264Z,25.00
2019-04-16T18:11:09.756Z,24.90
2019-04-16T18:13:37.315Z,24.90
2019-04-16T18:16:23.135Z,24.90
2019-04-16T18:18:52.524Z,24.90
2019-04-16T18:21:27.245Z,24.90
2019-04-16T18:24:05.456Z,24.80
2019-04-16T18:26:39.987Z,24.80
2019-04-16T18:29:24.181Z,24.80
2019-04-16T18:31:56.352Z,24.70
2019-04-16T18:34:30.831Z,24.60
2019-04-16T18:37:16.417Z,24.60
2019-04-16T18:39:49.397Z,24.50
2019-04-16T18:42:24.187Z,24.40
2019-04-16T18:44:59.486Z,24.40
2019-04-16T18:47:33.992Z,24.30
2019-04-16T18:50:05.382Z,24.30
2019-04-16T18:52:32.917Z,24.30
2019-04-16T18:55:00.047Z,24.20
2019-04-16T18:57:27.251Z,24.20
2019-04-16T18:59:54.357Z,24.20
2019-04-16T19:02:23.140Z,24.30
2019-04-16T19:04:51.433Z,24.30
2019-04-16T19:07:18.751Z,24.30
2019-04-16T19:09:46.178Z,24.30
2019-04-16T19:12:15.945Z,24.30
2019-04-16T19:14:42.994Z,24.40
2019-04-16T19:17:11.509Z,24.40
2019-04-16T19:19:41.997Z,24.40
2019-04-16T19:22:07.825Z,24.40
2019-04-16T19:24:34.875Z,24.40
2019-04-16T19:27:02.337Z,24.40
2019-04-16T19:29:29.598Z,24.50
2019-04-16T19:31:57.589Z,24.50
2019-04-16T19:34:25.065Z,24.50
2019-04-16T19:36:52.365Z,24.50
2019-04-16T19:39:20.288Z,24.50
2019-04-16T19:41:47.740Z,24.50
2019-04-16T19:44:14.744Z,24.50
2019-04-16T19:46:42.067Z,24.50
2019-04-16T19:49:09.869Z,24.60
2019-04-16T19:51:38.090Z,24.60
2019-04-16T19:54:06.835Z,24.60
2019-04-16T19:59:26.798Z,24.70
2019-04-16T20:01:55.987Z,24.70
2019-04-16T20:04:25.953Z,24.70
2019-04-16T20:10:03.724Z,24.70
2019-04-16T20:12:32.052Z,24.70
2019-04-16T20:15:01.653Z,24.60
2019-04-16T20:17:29.012Z,24.60
2019-04-16T20:20:05.928Z,24.60
2019-04-16T20:22:33.680Z,24.60
2019-04-16T20:25:01.725Z,24.60
2019-04-16T20:27:28.943Z,24.70
2019-04-16T20:29:56.747Z,24.60
2019-04-16T20:32:27.127Z,24.80
2019-04-16T20:34:54.222Z,24.80
2019-04-16T20:37:21.889Z,24.80
2019-04-16T20:39:48.939Z,24.70
2019-04-16T20:45:19.614Z,24.50
2019-04-16T20:47:46.964Z,24.50
2019-04-16T20:50:14.008Z,24.40
2019-04-16T20:52:41.055Z,24.50
2019-04-16T20:55:09.870Z,24.50
2019-04-16T20:57:39.131Z,24.60
2019-04-16T21:00:10.709Z,24.80
2019-04-16T21:02:37.133Z,24.80
2019-04-16T21:05:20.818Z,25.00
2019-04-16T21:07:34.876Z,25.00
2019-04-16T21:10:03.614Z,25.00
2019-04-16T21:12:33.392Z,25.00
2019-04-16T21:15:00.631Z,25.00
2019-04-16T21:17:27.977Z,25.00
2019-04-16T21:19:55.798Z,24.90
2019-04-16T21:22:24.964Z,24.80
2019-04-16T21:24:52.408Z,24.70
2019-04-16T21:27:19.792Z,24.60
2019-04-16T21:29:47.007Z,24.50
2019-04-16T21:32:22.981Z,24.50
2019-04-16T21:35:00.526Z,24.40
2019-04-16T21:37:47.865Z,24.40
2019-04-16T21:43:40.391Z,24.30
2019-04-16T21:46:07.697Z,24.40
2019-04-16T21:48:34.924Z,24.40
2019-04-16T21:53:58.923Z,24.40
2019-04-16T21:56:25.812Z,24.30
2019-04-16T21:58:52.656Z,24.20
2019-04-16T22:01:32.731Z,24.20
2019-04-16T22:04:01.773Z,24.20
2019-04-16T22:06:28.716Z,24.10
2019-04-16T22:08:55.931Z,24.10
2019-04-16T22:26:44.007Z,24.00
2019-04-16T22:29:15.446Z,23.70
2019-04-16T22:31:40.351Z,23.80
2019-04-16T22:34:07.442Z,23.90
2019-04-16T22:36:34.773Z,24.00
2019-04-16T22:39:09.768Z,24.20
2019-04-16T22:41:39.350Z,24.20
2019-04-16T22:47:07.330Z,24.40
2019-04-16T22:49:36.918Z,24.40
2019-04-16T22:52:04.061Z,24.40
2019-04-16T22:54:31.115Z,24.40
2019-04-16T22:57:01.960Z,24.30
2019-04-16T22:59:28.686Z,24.30
2019-04-16T23:01:56.748Z,24.30
2019-04-16T23:04:26.070Z,24.30
2019-04-16T23:06:53.226Z,24.30
2019-04-16T23:09:21.297Z,24.30
2019-04-16T23:11:48.034Z,24.30
2019-04-16T23:14:14.827Z,24.30
2019-04-16T23:16:42.732Z,24.30
2019-04-16T23:19:09.804Z,24.20
2019-04-16T23:21:36.550Z,24.20
2019-04-16T23:24:03.542Z,24.20
2019-04-16T23:26:33.036Z,24.10
2019-04-16T23:28:59.184Z,24.00
2019-04-16T23:31:26.098Z,23.90
2019-04-16T23:33:52.887Z,23.90
2019-04-16T23:36:19.847Z,23.80
2019-04-16T23:38:46.757Z,23.80
2019-04-16T23:41:16.671Z,23.80
2019-04-16T23:43:44.902Z,23.70
2019-04-16T23:46:14.029Z,23.70
2019-04-16T23:48:57.823Z,23.70
2019-04-16T23:51:33.026Z,23.60
2019-04-16T23:54:01.650Z,23.60
2019-04-16T23:56:30.614Z,23.60
2019-04-16T23:59:05.547Z,23.70
